createdAt,value
2018-12-02T00:01:06.894Z,72.80
2018-12-02T00:03:35.749Z,74.00
2018-12-02T00:06:04.656Z,75.20
2018-12-02T00:08:33.666Z,71.25
2018-12-02T00:11:02.582Z,67.30
2018-12-02T00:13:31.456Z,81.32
2018-12-02T00:16:00.286Z,68.55
2018-12-02T00:18:29.158Z,77.53
2018-12-02T00:20:57.994Z,72.40
2018-12-02T00:23:26.851Z,74.50
2018-12-02T00:25:55.683Z,77.80
2018-12-02T00:28:24.550Z,81.92
2018-12-02T00:30:53.531Z,76.55
2018-12-02T00:33:22.395Z,75.65
2018-12-02T00:35:51.286Z,67.75
2018-12-02T00:38:20.144Z,68.42
2018-12-02T00:40:49.027Z,75.70
2018-12-02T00:43:17.892Z,75.52
2018-12-02T00:45:46.785Z,66.95
2018-12-02T00:48:15.641Z,79.07
2018-12-02T00:50:46.551Z,72.25
2018-12-02T00:53:15.426Z,76.22
2018-12-02T00:55:44.533Z,69.55
2018-12-02T00:58:13.386Z,66.45
2018-12-02T01:00:42.349Z,75.12
2018-12-02T01:03:11.210Z,69.70
2018-12-02T01:05:40.137Z,70.45
2018-12-02T01:08:09.002Z,77.10
2018-12-02T01:10:37.913Z,71.22
2018-12-02T01:13:09.219Z,71.72
2018-12-02T01:15:39.878Z,87.17
2018-12-02T01:18:09.153Z,66.90
2018-12-02T01:20:38.973Z,82.55
2018-12-02T01:23:07.979Z,71.97
2018-12-02T01:25:37.151Z,74.40
2018-12-02T01:28:06.638Z,71.20
2018-12-02T01:30:35.899Z,68.47
2018-12-02T01:33:04.800Z,74.87
2018-12-02T01:35:33.637Z,78.20
2018-12-02T01:38:02.473Z,69.77
2018-12-02T01:40:47.413Z,77.97
2018-12-02T01:43:16.318Z,76.97
2018-12-02T01:45:45.173Z,82.42
2018-12-02T01:48:14.029Z,69.90
2018-12-02T01:50:42.956Z,73.10
2018-12-02T01:53:11.801Z,78.00
2018-12-02T01:55:40.650Z,69.60
2018-12-02T01:58:09.524Z,73.75
2018-12-02T02:00:38.422Z,76.00
2018-12-02T02:03:07.261Z,77.85
2018-12-02T02:05:36.130Z,80.15
2018-12-02T02:08:05.710Z,80.45
2018-12-02T02:10:34.621Z,86.40
2018-12-02T02:13:03.475Z,70.20
2018-12-02T02:15:32.346Z,89.45
2018-12-02T02:18:01.185Z,71.00
2018-12-02T02:20:30.082Z,73.65
2018-12-02T02:22:58.938Z,73.40
2018-12-02T02:25:27.905Z,83.05
2018-12-02T02:27:58.307Z,78.30
2018-12-02T02:30:28.804Z,78.70
2018-12-02T02:32:57.752Z,75.05
2018-12-02T02:35:26.592Z,79.53
2018-12-02T02:37:56.981Z,82.35
2018-12-02T02:40:29.882Z,74.65
2018-12-02T02:42:58.750Z,76.15
2018-12-02T02:45:27.666Z,76.40
2018-12-02T02:47:56.527Z,77.05
2018-12-02T02:50:26.084Z,69.32
2018-12-02T02:53:00.308Z,65.65
2018-12-02T02:55:29.181Z,64.70
2018-12-02T02:57:58.095Z,66.25
2018-12-02T03:00:30.538Z,69.53
2018-12-02T03:02:59.582Z,69.95
2018-12-02T03:05:40.220Z,63.15
2018-12-02T03:08:09.055Z,62.98
2018-12-02T03:10:37.975Z,66.55
2018-12-02T03:13:06.817Z,67.78
2018-12-02T03:15:35.672Z,67.50
2018-12-02T03:18:04.758Z,59.35
2018-12-02T03:20:33.639Z,53.10
2018-12-02T03:23:02.506Z,50.28
2018-12-02T03:25:31.335Z,47.95
2018-12-02T03:28:00.182Z,56.83
2018-12-02T03:30:29.107Z,53.35
2018-12-02T03:32:57.980Z,55.92
2018-12-02T03:35:27.086Z,50.80
2018-12-02T03:37:56.441Z,44.42
2018-12-02T03:40:26.879Z,43.28
2018-12-02T03:42:55.960Z,38.95
2018-12-02T03:45:26.957Z,41.98
2018-12-02T03:47:56.478Z,53.92
2018-12-02T03:50:25.375Z,45.05
2018-12-02T03:52:54.298Z,39.42
2018-12-02T03:55:23.149Z,45.38
2018-12-02T03:57:52.036Z,36.90
2018-12-02T04:00:29.342Z,37.15
2018-12-02T04:02:58.176Z,39.48
2018-12-02T04:05:27.058Z,44.13
2018-12-02T04:07:55.915Z,38.13
2018-12-02T04:10:24.918Z,38.05
2018-12-02T04:12:53.846Z,39.25
2018-12-02T04:15:24.625Z,40.83
2018-12-02T04:17:53.479Z,38.78
2018-12-02T04:20:22.388Z,52.73
2018-12-02T04:22:52.075Z,43.25
2018-12-02T04:25:24.384Z,48.20
2018-12-02T04:28:06.051Z,40.52
2018-12-02T04:30:34.929Z,40.48
2018-12-02T04:33:03.803Z,44.83
2018-12-02T04:35:32.650Z,52.90
2018-12-02T04:38:01.523Z,56.23
2018-12-02T04:40:30.394Z,67.75
2018-12-02T04:42:59.259Z,60.55
2018-12-02T04:45:28.118Z,78.52
2018-12-02T04:47:57.030Z,61.83
2018-12-02T04:50:25.953Z,67.45
2018-12-02T04:52:54.825Z,64.53
2018-12-02T04:55:23.681Z,75.25
2018-12-02T04:57:52.539Z,77.60
2018-12-02T05:00:29.865Z,84.80
2018-12-02T05:02:58.739Z,90.57
2018-12-02T05:05:27.570Z,73.85
2018-12-02T05:07:56.415Z,79.75
2018-12-02T05:10:25.303Z,79.47
2018-12-02T05:12:54.193Z,65.35
2018-12-02T05:15:23.072Z,65.60
2018-12-02T05:17:51.912Z,64.80
2018-12-02T05:20:21.783Z,74.60
2018-12-02T05:22:50.721Z,71.57
2018-12-02T05:25:19.741Z,75.80
2018-12-02T05:27:48.622Z,77.80
2018-12-02T05:30:18.989Z,69.70
2018-12-02T05:32:49.397Z,64.47
2018-12-02T05:35:18.273Z,80.15
2018-12-02T05:37:47.145Z,73.28
2018-12-02T05:40:19.598Z,64.17
2018-12-02T05:42:48.541Z,62.93
2018-12-02T05:45:18.363Z,76.20
2018-12-02T05:47:47.310Z,71.22
2018-12-02T05:50:24.555Z,65.67
2018-12-02T05:52:56.930Z,69.50
2018-12-02T05:55:27.660Z,73.40
2018-12-02T05:57:56.589Z,57.40
2018-12-02T06:00:30.920Z,63.63
2018-12-02T06:02:59.791Z,66.90
2018-12-02T06:05:28.722Z,64.65
2018-12-02T06:07:57.595Z,68.62
2018-12-02T06:10:26.494Z,63.23
2018-12-02T06:12:55.426Z,70.85
2018-12-02T06:15:24.248Z,79.35
2018-12-02T06:17:53.094Z,64.85
2018-12-02T06:20:25.140Z,75.22
2018-12-02T06:22:56.270Z,63.25
2018-12-02T06:25:25.272Z,74.17
2018-12-02T06:27:54.197Z,68.00
2018-12-02T06:30:29.857Z,66.82
2018-12-02T06:33:02.413Z,61.00
2018-12-02T06:35:31.283Z,60.75
2018-12-02T06:38:01.950Z,64.80
2018-12-02T06:40:30.829Z,79.85
2018-12-02T06:42:59.673Z,64.00
2018-12-02T06:45:28.563Z,59.08
2018-12-02T06:47:57.452Z,70.52
2018-12-02T06:50:27.534Z,83.65
2018-12-02T06:52:57.241Z,70.97
2018-12-02T06:55:38.162Z,68.95
2018-12-02T06:58:32.789Z,70.42
2018-12-02T07:01:32.090Z,80.05
2018-12-02T07:04:17.770Z,75.03
2018-12-02T07:06:46.632Z,81.42
2018-12-02T07:09:15.529Z,71.25
2018-12-02T07:11:44.722Z,70.40
2018-12-02T07:14:13.594Z,75.83
2018-12-02T07:16:42.467Z,86.40
2018-12-02T07:19:25.402Z,85.30
2018-12-02T07:22:03.766Z,79.50
2018-12-02T07:24:37.651Z,78.05
2018-12-02T07:27:10.485Z,81.95
2018-12-02T07:29:39.347Z,84.45
2018-12-02T07:32:08.334Z,81.55
2018-12-02T07:34:37.178Z,81.67
2018-12-02T07:37:12.056Z,82.20
2018-12-02T07:40:10.976Z,87.40
2018-12-02T07:42:39.846Z,82.50
2018-12-02T07:45:08.743Z,88.07
2018-12-02T07:47:37.586Z,77.42
2018-12-02T07:50:08.513Z,77.40
2018-12-02T07:52:38.146Z,83.67
2018-12-02T07:55:08.784Z,80.00
2018-12-02T07:57:37.710Z,74.77
2018-12-02T08:00:16.515Z,91.08
2018-12-02T08:02:45.473Z,93.40
2018-12-02T08:05:16.415Z,75.28
2018-12-02T08:07:49.904Z,72.03
2018-12-02T08:10:19.870Z,75.80
2018-12-02T08:12:48.844Z,75.83
2018-12-02T08:15:19.115Z,70.52
2018-12-02T08:17:48.015Z,76.47
2018-12-02T08:20:17.789Z,70.12
2018-12-02T08:22:51.247Z,68.83
2018-12-02T08:25:28.729Z,71.80
2018-12-02T08:27:57.710Z,71.57
2018-12-02T08:30:26.850Z,63.98
2018-12-02T08:32:56.077Z,69.35
2018-12-02T08:35:28.256Z,79.47
2018-12-02T08:38:02.846Z,70.62
2018-12-02T08:40:31.766Z,63.83
2018-12-02T08:43:00.701Z,69.20
2018-12-02T08:45:29.582Z,64.17
2018-12-02T08:47:58.456Z,79.22
2018-12-02T08:50:27.398Z,61.98
2018-12-02T08:52:56.289Z,70.15
2018-12-02T08:55:25.150Z,77.67
2018-12-02T08:57:54.447Z,70.37
2018-12-02T09:00:32.090Z,62.30
2018-12-02T09:03:03.490Z,66.33
2018-12-02T09:05:32.388Z,60.43
2018-12-02T09:08:01.669Z,67.30
2018-12-02T09:10:32.050Z,60.90
2018-12-02T09:13:03.077Z,76.00
2018-12-02T09:15:31.979Z,65.85
2018-12-02T09:18:00.929Z,74.40
2018-12-02T09:20:33.306Z,66.40
2018-12-02T09:23:02.572Z,104.47
2018-12-02T09:25:31.626Z,92.27
2018-12-02T09:28:01.163Z,73.20
2018-12-02T09:30:31.882Z,67.03
2018-12-02T09:33:01.493Z,60.70
2018-12-02T09:35:30.431Z,71.45
2018-12-02T09:37:59.393Z,66.00
2018-12-02T09:40:28.267Z,55.55
2018-12-02T09:42:57.218Z,57.55
2018-12-02T09:45:28.700Z,64.67
2018-12-02T09:47:59.134Z,68.50
2018-12-02T09:50:29.022Z,70.42
2018-12-02T09:52:57.998Z,69.58
2018-12-02T09:55:32.625Z,74.65
2018-12-02T09:58:01.689Z,69.45
2018-12-02T10:00:34.385Z,69.77
2018-12-02T10:03:12.744Z,70.30
2018-12-02T10:05:41.618Z,66.92
2018-12-02T10:08:10.491Z,68.97
2018-12-02T10:10:39.487Z,69.35
2018-12-02T10:13:11.098Z,74.25
2018-12-02T10:15:41.777Z,70.57
2018-12-02T10:18:22.456Z,72.08
2018-12-02T10:20:51.442Z,69.95
2018-12-02T10:23:20.339Z,76.47
2018-12-02T10:25:49.191Z,87.17
2018-12-02T10:28:18.071Z,72.40
2018-12-02T10:30:47.046Z,68.70
2018-12-02T10:33:16.361Z,75.20
2018-12-02T10:35:45.203Z,72.78
2018-12-02T10:38:14.115Z,72.08
2018-12-02T10:40:43.034Z,74.85
2018-12-02T10:43:11.925Z,84.03
2018-12-02T10:45:40.787Z,70.12
2018-12-02T10:48:11.453Z,71.72
2018-12-02T10:50:40.385Z,67.27
2018-12-02T10:53:21.627Z,70.35
2018-12-02T10:55:53.722Z,70.62
2018-12-02T10:58:33.544Z,75.67
2018-12-02T11:01:12.231Z,70.40
2018-12-02T11:03:41.461Z,65.42
2018-12-02T11:06:10.472Z,65.03
2018-12-02T11:08:39.400Z,74.42
2018-12-02T11:11:09.155Z,63.85
2018-12-02T11:13:38.104Z,66.70
2018-12-02T11:16:08.182Z,66.05
2018-12-02T11:18:37.232Z,62.17
2018-12-02T11:21:06.391Z,71.45
2018-12-02T11:23:36.151Z,69.95
2018-12-02T11:26:05.574Z,58.33
2018-12-02T11:28:35.155Z,73.05
2018-12-02T11:31:04.487Z,68.37
2018-12-02T11:33:33.430Z,69.97
2018-12-02T11:36:02.367Z,75.30
2018-12-02T11:38:31.253Z,69.97
2018-12-02T11:41:00.246Z,69.25
2018-12-02T11:43:29.123Z,68.52
2018-12-02T11:45:57.982Z,65.37
2018-12-02T11:48:26.875Z,65.57
2018-12-02T11:50:55.785Z,70.10
2018-12-02T11:53:25.280Z,77.60
2018-12-02T11:55:54.234Z,74.40
2018-12-02T11:58:23.200Z,72.55
2018-12-02T12:00:52.174Z,70.35
2018-12-02T12:03:21.074Z,75.55
2018-12-02T12:05:49.937Z,75.08
2018-12-02T12:08:18.838Z,80.50
2018-12-02T12:10:48.797Z,73.90
2018-12-02T12:13:17.712Z,71.75
2018-12-02T12:15:46.602Z,69.20
2018-12-02T12:18:15.491Z,72.10
2018-12-02T12:20:46.515Z,69.25
2018-12-02T12:23:17.566Z,67.95
2018-12-02T12:25:46.545Z,74.35
2018-12-02T12:28:15.419Z,77.15
2018-12-02T12:30:44.395Z,69.00
2018-12-02T12:33:13.269Z,72.92
2018-12-02T12:35:46.973Z,84.03
2018-12-02T12:39:19.530Z,67.92
2018-12-02T12:41:48.489Z,67.35
2018-12-02T12:44:17.368Z,78.25
2018-12-02T12:46:46.266Z,70.90
2018-12-02T12:49:15.095Z,69.62
2018-12-02T12:51:44.030Z,81.65
2018-12-02T12:54:12.958Z,84.70
2018-12-02T12:56:41.863Z,82.30
2018-12-02T12:59:12.091Z,74.15
2018-12-02T13:01:41.939Z,76.40
2018-12-02T13:04:10.910Z,78.97
2018-12-02T13:06:39.808Z,71.05
2018-12-02T13:09:09.482Z,75.20
2018-12-02T13:11:39.143Z,69.60
2018-12-02T13:14:08.674Z,69.85
2018-12-02T13:16:38.160Z,86.20
2018-12-02T13:19:07.449Z,71.45
2018-12-02T13:21:37.214Z,86.37
2018-12-02T13:24:06.773Z,73.85
2018-12-02T13:26:36.200Z,75.70
2018-12-02T13:29:05.275Z,70.60
2018-12-02T13:31:34.602Z,75.60
2018-12-02T13:34:03.717Z,86.45
2018-12-02T13:36:32.614Z,81.63
2018-12-02T13:39:01.746Z,77.90
2018-12-02T13:41:30.839Z,87.05
2018-12-02T13:44:00.142Z,79.97
2018-12-02T13:46:29.682Z,71.80
2018-12-02T13:48:58.843Z,86.55
2018-12-02T13:51:27.858Z,81.78
2018-12-02T13:54:02.410Z,79.37
2018-12-02T13:56:31.289Z,80.32
2018-12-02T13:59:00.844Z,73.05
2018-12-02T14:01:30.407Z,72.62
2018-12-02T14:03:59.667Z,80.85
2018-12-02T14:06:28.646Z,93.58
2018-12-02T14:08:57.770Z,85.22
2018-12-02T14:11:27.463Z,85.55
2018-12-02T14:13:56.601Z,88.35
2018-12-02T14:16:35.474Z,82.37
2018-12-02T14:19:09.199Z,72.05
2018-12-02T14:21:50.010Z,76.90
2018-12-02T14:24:19.353Z,73.95
2018-12-02T14:26:49.675Z,85.77
2018-12-02T14:29:30.347Z,78.42
2018-12-02T14:32:01.961Z,85.15
2018-12-02T14:34:31.345Z,77.32
2018-12-02T14:37:00.765Z,77.60
2018-12-02T14:39:30.010Z,85.38
2018-12-02T14:41:59.201Z,85.03
2018-12-02T14:44:28.274Z,86.97
2018-12-02T14:46:57.223Z,76.77
2018-12-02T14:49:26.686Z,83.47
2018-12-02T14:51:57.283Z,85.40
2018-12-02T14:54:26.218Z,85.75
2018-12-02T14:56:55.132Z,87.20
2018-12-02T14:59:28.401Z,87.72
2018-12-02T15:01:57.426Z,95.85
2018-12-02T15:04:26.411Z,80.80
2018-12-02T15:06:55.822Z,75.35
2018-12-02T15:09:24.821Z,88.07
2018-12-02T15:11:56.754Z,90.32
2018-12-02T15:14:37.603Z,83.50
2018-12-02T15:17:07.049Z,87.27
2018-12-02T15:19:35.963Z,81.65
2018-12-02T15:22:05.658Z,91.02
2018-12-02T15:24:34.641Z,91.65
2018-12-02T15:27:04.017Z,83.92
2018-12-02T15:29:33.200Z,83.20
2018-12-02T15:32:02.754Z,91.67
2018-12-02T15:34:32.382Z,83.95
2018-12-02T15:37:01.683Z,93.15
2018-12-02T15:39:30.586Z,92.02
2018-12-02T15:41:59.570Z,83.10
2018-12-02T15:44:29.213Z,77.67
2018-12-02T15:46:58.258Z,91.08
2018-12-02T15:49:34.033Z,77.72
2018-12-02T15:52:03.473Z,97.67
2018-12-02T15:54:32.771Z,89.65
2018-12-02T15:57:01.857Z,93.35
2018-12-02T15:59:31.261Z,83.58
2018-12-02T16:02:00.900Z,87.97
2018-12-02T16:04:30.044Z,84.17
2018-12-02T16:06:59.467Z,86.20
2018-12-02T16:09:28.419Z,91.67
2018-12-02T16:11:57.976Z,105.58
2018-12-02T16:14:27.278Z,74.65
2018-12-02T16:16:56.286Z,85.72
2018-12-02T16:19:25.511Z,85.72
2018-12-02T16:21:55.119Z,88.20
2018-12-02T16:24:24.258Z,92.45
2018-12-02T16:26:53.834Z,83.27
2018-12-02T16:29:23.337Z,86.42
2018-12-02T16:31:52.990Z,84.42
2018-12-02T16:34:22.111Z,83.52
2018-12-02T16:36:51.515Z,96.57
2018-12-02T16:39:20.554Z,102.47
2018-12-02T16:41:50.020Z,97.33
2018-12-02T16:44:19.434Z,80.45
2018-12-02T16:46:48.650Z,80.72
2018-12-02T16:49:18.150Z,85.65
2018-12-02T16:51:47.481Z,83.05
2018-12-02T16:54:16.855Z,89.22
2018-12-02T16:56:46.548Z,95.25
2018-12-02T16:59:27.143Z,86.28
2018-12-02T17:02:04.899Z,96.55
2018-12-02T17:04:40.486Z,87.12
2018-12-02T17:07:09.858Z,96.00
2018-12-02T17:09:38.762Z,80.20
2018-12-02T17:12:08.174Z,84.22
2018-12-02T17:14:38.782Z,87.90
2018-12-02T17:17:18.429Z,77.15
2018-12-02T17:19:47.687Z,93.58
2018-12-02T17:22:16.865Z,90.05
2018-12-02T17:24:45.983Z,91.55
2018-12-02T17:27:15.157Z,85.92
2018-12-02T17:29:44.225Z,86.32
2018-12-02T17:32:14.225Z,84.37
2018-12-02T17:34:43.646Z,75.30
2018-12-02T17:37:12.990Z,87.82
2018-12-02T17:39:48.002Z,95.53
2018-12-02T17:42:17.471Z,84.40
2018-12-02T17:44:46.820Z,84.67
2018-12-02T17:47:16.055Z,83.27
2018-12-02T17:49:45.296Z,86.85
2018-12-02T17:52:16.606Z,79.45
2018-12-02T17:54:45.868Z,89.90
2018-12-02T17:57:14.914Z,82.20
2018-12-02T17:59:45.125Z,84.42
2018-12-02T18:02:15.484Z,91.15
2018-12-02T18:04:44.091Z,82.80
2018-12-02T18:07:13.338Z,84.13
2018-12-02T18:09:43.074Z,87.62
2018-12-02T18:12:13.425Z,91.28
2018-12-02T18:14:42.568Z,91.47
2018-12-02T18:17:11.688Z,90.17
2018-12-02T18:19:40.980Z,78.90
2018-12-02T18:22:10.516Z,86.42
2018-12-02T18:24:39.558Z,94.25
2018-12-02T18:27:08.823Z,76.75
2018-12-02T18:29:38.063Z,78.87
2018-12-02T18:32:07.029Z,83.80
2018-12-02T18:34:36.250Z,85.32
2018-12-02T18:37:08.250Z,83.30
2018-12-02T18:39:48.902Z,85.03
2018-12-02T18:42:17.818Z,87.90
2018-12-02T18:44:46.721Z,76.92
2018-12-02T18:47:15.615Z,81.78
2018-12-02T18:49:44.502Z,88.58
2018-12-02T18:52:13.850Z,85.45
2018-12-02T18:54:42.802Z,80.80
2018-12-02T18:57:12.364Z,80.95
2018-12-02T18:59:41.282Z,85.00
2018-12-02T19:02:10.798Z,101.60
2018-12-02T19:04:39.731Z,92.02
2018-12-02T19:07:09.341Z,72.53
2018-12-02T19:09:38.317Z,95.35
2018-12-02T19:12:07.299Z,78.45
2018-12-02T19:14:36.213Z,90.28
2018-12-02T19:17:05.220Z,87.62
2018-12-02T19:19:34.102Z,83.22
2018-12-02T19:22:04.111Z,105.75
2018-12-02T19:24:33.010Z,91.65
2018-12-02T19:27:01.895Z,95.70
2018-12-02T19:29:30.750Z,104.58
2018-12-02T19:31:59.692Z,104.55
2018-12-02T19:34:28.567Z,93.42
2018-12-02T19:37:02.038Z,85.95
2018-12-02T19:39:31.255Z,94.85
2018-12-02T19:42:00.850Z,77.62
2018-12-02T19:44:29.909Z,85.92
2018-12-02T19:46:58.903Z,93.35
2018-12-02T19:49:27.798Z,88.82
2018-12-02T19:51:56.770Z,90.72
2018-12-02T19:54:25.663Z,85.53
2018-12-02T19:56:54.543Z,90.17
2018-12-02T19:59:28.326Z,86.12
2018-12-02T20:01:57.232Z,91.78
2018-12-02T20:04:27.057Z,82.15
2018-12-02T20:06:55.926Z,89.35
2018-12-02T20:09:25.632Z,91.63
2018-12-02T20:11:54.618Z,93.90
2018-12-02T20:14:23.881Z,89.77
2018-12-02T20:16:52.773Z,91.17
2018-12-02T20:19:27.203Z,97.30
2018-12-02T20:21:56.183Z,92.60
2018-12-02T20:24:30.586Z,104.97
2018-12-02T20:26:59.487Z,91.63
2018-12-02T20:29:28.391Z,91.02
2018-12-02T20:31:57.666Z,86.47
2018-12-02T20:34:38.158Z,98.95
2018-12-02T20:37:07.071Z,98.27
2018-12-02T20:39:35.961Z,94.77
2018-12-02T20:42:05.306Z,83.50
2018-12-02T20:44:34.141Z,98.75
2018-12-02T20:47:03.090Z,102.92
2018-12-02T20:49:31.978Z,98.58
2018-12-02T20:52:01.194Z,97.10
2018-12-02T20:54:30.610Z,103.38
2018-12-02T20:56:59.983Z,112.00
2018-12-02T20:59:28.979Z,95.05
2018-12-02T21:01:57.998Z,89.20
2018-12-02T21:04:27.867Z,106.65
2018-12-02T21:06:56.932Z,113.68
2018-12-02T21:09:25.830Z,104.20
2018-12-02T21:11:54.759Z,92.92
2018-12-02T21:14:23.642Z,87.95
2018-12-02T21:16:52.482Z,105.32
2018-12-02T21:19:21.392Z,95.77
2018-12-02T21:21:50.362Z,98.35
2018-12-02T21:24:19.615Z,88.05
2018-12-02T21:26:48.486Z,95.35
2018-12-02T21:29:17.353Z,88.78
2018-12-02T21:31:46.289Z,100.90
2018-12-02T21:34:15.634Z,99.67
2018-12-02T21:36:44.625Z,89.05
2018-12-02T21:39:13.515Z,96.72
2018-12-02T21:41:42.466Z,98.97
2018-12-02T21:44:11.334Z,98.42
2018-12-02T21:46:40.206Z,93.55
2018-12-02T21:49:09.086Z,104.32
2018-12-02T21:51:38.059Z,99.10
2018-12-02T21:54:06.967Z,98.92
2018-12-02T21:56:35.847Z,102.75
2018-12-02T21:59:06.695Z,86.95
2018-12-02T22:01:48.436Z,82.72
2018-12-02T22:04:17.339Z,98.67
2018-12-02T22:06:46.234Z,88.60
2018-12-02T22:09:15.152Z,91.82
2018-12-02T22:11:44.099Z,87.80
2018-12-02T22:14:13.055Z,94.13
2018-12-02T22:16:42.066Z,92.80
2018-12-02T22:19:11.231Z,88.97
2018-12-02T22:21:40.163Z,104.30
2018-12-02T22:24:09.013Z,93.62
2018-12-02T22:26:37.902Z,86.57
2018-12-02T22:29:06.803Z,96.25
2018-12-02T22:31:35.737Z,88.75
2018-12-02T22:34:05.354Z,100.22
2018-12-02T22:36:34.254Z,88.78
2018-12-02T22:39:03.368Z,93.52
2018-12-02T22:42:27.387Z,92.45
2018-12-02T22:44:59.794Z,103.85
2018-12-02T22:47:30.453Z,86.47
2018-12-02T22:50:01.195Z,91.65
2018-12-02T22:52:32.065Z,99.25
2018-12-02T22:55:04.839Z,88.00
2018-12-02T22:57:35.551Z,89.85
2018-12-02T23:00:41.513Z,82.37
2018-12-02T23:03:14.127Z,96.70
2018-12-02T23:05:46.458Z,100.95
2018-12-02T23:08:17.208Z,98.37
2018-12-02T23:10:49.596Z,91.08
2018-12-02T23:13:20.465Z,86.60
2018-12-02T23:15:51.177Z,99.80
2018-12-02T23:18:22.256Z,110.95
2018-12-02T23:20:53.246Z,84.40
2018-12-02T23:23:24.098Z,83.85
2018-12-02T23:25:56.538Z,92.42
2018-12-02T23:28:28.145Z,91.80
2018-12-02T23:30:58.947Z,86.70
2018-12-02T23:33:29.783Z,84.03
2018-12-02T23:36:00.477Z,85.05
2018-12-02T23:38:31.175Z,89.60
2018-12-02T23:41:01.963Z,80.87
2018-12-02T23:43:34.535Z,89.17
2018-12-02T23:46:05.442Z,85.12
2018-12-02T23:48:36.402Z,88.22
2018-12-02T23:51:07.306Z,87.33
2018-12-02T23:53:38.059Z,88.62
2018-12-02T23:56:09.364Z,94.55
2018-12-02T23:58:40.191Z,83.82
